Time;durP1;ratioP1;P1;durP2;ratioP2;P2;SDS_P1;SDS_P2;PMS_P1;PMS_P2;Temp;Humidity;BMP_temperature;BMP_pressure;BME280_temperature;BME280_humidity;BME280_pressure;Samples;Min_cycle;Max_cycle;Signal;HPM_P1;HPM_P2
2021/04/22 00:03:45;;;;;;;6.60;5.60;;;;;;;;;;10038082;29;20110;-53
2021/04/22 00:08:43;;;;;;;6.60;5.90;;;;;;;;;;10037983;29;20082;-54
2021/04/22 00:13:42;;;;;;;6.43;5.82;;;;;;;;;;10038567;29;20054;-56
2021/04/22 00:18:39;;;;;;;6.65;5.70;;;;;;;;;;10038165;29;20509;-52
2021/04/22 00:23:38;;;;;;;6.43;5.82;;;;;;;;;;10036891;29;20055;-55
2021/04/22 00:28:36;;;;;;;6.15;5.47;;;;;;;;;;10037727;29;20087;-52
2021/04/22 00:33:33;;;;;;;8.30;6.13;;;;;;;;;;10038034;29;20087;-54
2021/04/22 00:38:30;;;;;;;8.13;5.63;;;;;;;;;;10037551;29;20482;-56
2021/04/22 00:43:28;;;;;;;6.32;5.72;;;;;;;;;;10037474;29;20047;-51
2021/04/22 00:48:26;;;;;;;6.75;5.65;;;;;;;;;;10037638;29;20866;-54
2021/04/22 00:53:33;;;;;;;6.65;5.95;;;;;;;;;;10036006;29;20074;-56
2021/04/22 00:58:31;;;;;;;6.50;5.90;;;;;;;;;;10035960;29;20060;-54
2021/04/22 01:03:30;;;;;;;6.88;6.18;;;;;;;;;;10037452;29;20047;-53
2021/04/22 01:08:27;;;;;;;7.13;6.28;;;;;;;;;;10036959;29;20083;-55
2021/04/22 01:13:25;;;;;;;5.70;5.18;;;;;;;;;;10037161;29;20095;-55
2021/04/22 01:18:22;;;;;;;7.68;6.13;;;;;;;;;;10038100;29;20051;-53
2021/04/22 01:23:21;;;;;;;9.85;7.80;;;;;;;;;;10044331;29;20477;-52
2021/04/22 01:28:19;;;;;;;8.50;7.70;;;;;;;;;;10044035;29;20502;-55
2021/04/22 01:33:18;;;;;;;7.45;6.75;;;;;;;;;;10044142;29;20051;-54
2021/04/22 01:38:16;;;;;;;8.40;7.60;;;;;;;;;;10044149;29;20083;-55
2021/04/22 01:43:14;;;;;;;5.97;5.45;;;;;;;;;;10043434;29;20079;-53
2021/04/22 01:48:11;;;;;;;6.53;5.93;;;;;;;;;;10043657;29;20087;-53
2021/04/22 01:53:09;;;;;;;9.27;7.65;;;;;;;;;;10043215;29;20067;-52
2021/04/22 01:58:08;;;;;;;7.70;6.90;;;;;;;;;;10043171;29;20087;-50
2021/04/22 02:03:07;;;;;;;7.32;5.72;;;;;;;;;;10041975;29;20086;-53
2021/04/22 02:08:05;;;;;;;9.90;8.93;;;;;;;;;;10041527;29;20091;-51
2021/04/22 02:13:03;;;;;;;6.75;6.10;;;;;;;;;;10042534;29;20055;-55
2021/04/22 02:18:00;;;;;;;7.90;6.35;;;;;;;;;;10042166;29;20122;-55
2021/04/22 02:22:59;;;;;;;5.97;5.38;;;;;;;;;;10042121;29;20059;-55
2021/04/22 02:27:57;;;;;;;6.30;5.70;;;;;;;;;;10041516;29;20087;-54
2021/04/22 02:32:54;;;;;;;6.45;5.75;;;;;;;;;;10041648;29;20047;-55
2021/04/22 02:37:52;;;;;;;7.85;7.10;;;;;;;;;;10041498;29;20067;-56
2021/04/22 02:42:50;;;;;;;8.30;6.47;;;;;;;;;;10041346;29;20410;-55
2021/04/22 02:47:48;;;;;;;6.45;5.85;;;;;;;;;;10040701;29;20042;-54
2021/04/22 02:52:45;;;;;;;10.02;6.68;;;;;;;;;;10040993;29;20074;-55
2021/04/22 02:57:42;;;;;;;7.47;6.53;;;;;;;;;;10040544;29;20056;-55
2021/04/22 03:02:41;;;;;;;7.70;6.95;;;;;;;;;;10040388;29;20517;-56
2021/04/22 03:07:38;;;;;;;14.02;12.90;;;;;;;;;;10039264;29;20082;-56
2021/04/22 03:12:36;;;;;;;7.18;5.93;;;;;;;;;;10039381;29;20048;-57
2021/04/22 03:17:34;;;;;;;7.40;6.70;;;;;;;;;;10040310;29;20059;-55
2021/04/22 03:22:32;;;;;;;8.70;6.43;;;;;;;;;;10039849;29;20059;-60
2021/04/22 03:27:32;;;;;;;8.65;6.18;;;;;;;;;;10039761;29;20054;-56
2021/04/22 03:32:30;;;;;;;6.90;6.20;;;;;;;;;;10039328;29;20087;-55
2021/04/22 03:37:27;;;;;;;9.80;6.57;;;;;;;;;;10039189;29;20083;-55
2021/04/22 03:42:25;;;;;;;8.80;7.32;;;;;;;;;;10035427;29;20079;-54
2021/04/22 03:47:23;;;;;;;7.72;6.97;;;;;;;;;;10036441;29;20098;-56
2021/04/22 03:52:20;;;;;;;7.60;6.80;;;;;;;;;;10036493;29;20458;-54
2021/04/22 03:57:18;;;;;;;7.60;6.90;;;;;;;;;;10036935;29;20478;-55
2021/04/22 04:02:17;;;;;;;7.93;7.15;;;;;;;;;;10036521;29;20083;-53
2021/04/22 04:07:15;;;;;;;7.80;7.00;;;;;;;;;;10036450;29;20487;-51
2021/04/22 04:12:13;;;;;;;7.57;6.88;;;;;;;;;;10036951;29;20087;-53
2021/04/22 04:17:10;;;;;;;15.15;6.63;;;;;;;;;;10036761;29;20129;-55
2021/04/22 04:22:09;;;;;;;7.47;6.78;;;;;;;;;;10035685;29;20083;-56
2021/04/22 04:27:06;;;;;;;10.15;7.90;;;;;;;;;;10035912;29;20075;-55
2021/04/22 04:32:04;;;;;;;11.00;7.80;;;;;;;;;;10035137;29;20114;-56
2021/04/22 04:37:03;;;;;;;10.80;7.20;;;;;;;;;;10035736;29;20070;-55
2021/04/22 04:42:01;;;;;;;8.05;6.70;;;;;;;;;;10035314;29;20083;-54
2021/04/22 04:46:59;;;;;;;7.88;6.97;;;;;;;;;;10034352;29;20510;-54
2021/04/22 04:51:56;;;;;;;10.00;7.07;;;;;;;;;;10033240;29;20157;-55
2021/04/22 04:56:53;;;;;;;114.68;59.40;;;;;;;;;;10040498;29;20627;-54
2021/04/22 05:01:52;;;;;;;8.93;6.93;;;;;;;;;;10040961;29;20070;-56
2021/04/22 05:06:49;;;;;;;12.88;11.48;;;;;;;;;;10043183;29;20087;-56
2021/04/22 05:11:46;;;;;;;11.93;10.82;;;;;;;;;;10042827;29;20403;-57
2021/04/22 05:16:44;;;;;;;9.38;8.45;;;;;;;;;;10042716;29;20083;-58
2021/04/22 05:21:42;;;;;;;8.50;7.70;;;;;;;;;;10042729;29;20063;-54
2021/04/22 05:26:40;;;;;;;9.15;8.25;;;;;;;;;;10042148;29;20072;-56
2021/04/22 05:31:37;;;;;;;9.13;7.97;;;;;;;;;;10041835;29;20091;-56
2021/04/22 05:36:34;;;;;;;8.20;7.40;;;;;;;;;;10042019;29;20082;-56
2021/04/22 05:41:33;;;;;;;8.82;7.93;;;;;;;;;;10042791;29;20047;-55
2021/04/22 05:46:31;;;;;;;9.65;7.35;;;;;;;;;;10042849;29;20138;-56
2021/04/22 05:51:28;;;;;;;11.07;9.95;;;;;;;;;;10039982;29;20075;-56
2021/04/22 05:56:25;;;;;;;11.15;7.72;;;;;;;;;;10041960;29;20047;-55
2021/04/22 06:01:24;;;;;;;10.77;7.72;;;;;;;;;;10042046;29;20086;-57
2021/04/22 06:06:21;;;;;;;13.63;7.97;;;;;;;;;;10041166;29;20102;-55
2021/04/22 06:11:18;;;;;;;10.10;8.75;;;;;;;;;;10041570;29;20079;-56
2021/04/22 06:16:16;;;;;;;9.18;7.93;;;;;;;;;;10041619;29;20071;-55
2021/04/22 06:21:14;;;;;;;10.98;8.07;;;;;;;;;;10041354;29;20083;-55
2021/04/22 06:26:12;;;;;;;11.35;9.00;;;;;;;;;;10040706;29;20082;-55
2021/04/22 06:31:09;;;;;;;8.45;7.63;;;;;;;;;;10039768;29;20091;-56
2021/04/22 06:36:06;;;;;;;9.77;8.77;;;;;;;;;;10040388;29;20056;-56
2021/04/22 06:41:05;;;;;;;10.75;8.90;;;;;;;;;;10038368;29;20493;-56
2021/04/22 06:46:02;;;;;;;8.57;7.72;;;;;;;;;;10039669;29;20537;-57
2021/04/22 06:50:59;;;;;;;11.48;8.88;;;;;;;;;;10040366;29;20083;-54
2021/04/22 06:55:57;;;;;;;8.40;7.50;;;;;;;;;;10039812;29;20458;-57
2021/04/22 07:00:55;;;;;;;10.25;8.73;;;;;;;;;;10039735;29;20048;-55
2021/04/22 07:05:53;;;;;;;9.13;8.23;;;;;;;;;;10039454;29;20477;-54
2021/04/22 07:10:50;;;;;;;9.18;8.25;;;;;;;;;;10039382;29;20071;-54
2021/04/22 07:15:48;;;;;;;7.35;6.65;;;;;;;;;;10037934;29;20078;-55
2021/04/22 07:20:46;;;;;;;8.77;7.43;;;;;;;;;;10038412;29;20071;-55
2021/04/22 07:25:43;;;;;;;9.05;7.85;;;;;;;;;;10038399;29;20083;-56
2021/04/22 07:30:42;;;;;;;9.90;7.85;;;;;;;;;;10037980;29;20087;-58
2021/04/22 07:35:39;;;;;;;7.78;6.97;;;;;;;;;;10038607;29;20086;-56
2021/04/22 07:40:38;;;;;;;11.85;8.27;;;;;;;;;;10038407;29;20055;-55
2021/04/22 07:45:37;;;;;;;8.82;7.93;;;;;;;;;;10037785;29;20082;-55
2021/04/22 07:50:35;;;;;;;13.55;5.68;;;;;;;;;;10037784;29;20075;-57
2021/04/22 07:55:33;;;;;;;6.75;5.95;;;;;;;;;;10037683;29;20660;-57
2021/04/22 08:00:32;;;;;;;7.90;6.10;;;;;;;;;;10037668;29;20067;-58
2021/04/22 08:05:30;;;;;;;6.43;5.75;;;;;;;;;;10036773;29;20054;-55
2021/04/22 08:10:36;;;;;;;12.57;8.20;;;;;;;;;;10036729;29;20087;-57
2021/04/22 08:15:35;;;;;;;5.55;4.95;;;;;;;;;;10037054;29;20047;-54
2021/04/22 08:20:32;;;;;;;6.28;5.68;;;;;;;;;;10036162;29;20086;-52
2021/04/22 08:25:32;;;;;;;4.80;4.35;;;;;;;;;;10036589;29;20086;-54
2021/04/22 08:30:30;;;;;;;6.90;5.72;;;;;;;;;;10035608;29;20110;-55
2021/04/22 08:35:28;;;;;;;10.95;6.82;;;;;;;;;;10035738;29;20090;-52
2021/04/22 08:40:26;;;;;;;9.98;6.88;;;;;;;;;;10035994;29;20509;-55
2021/04/22 08:45:24;;;;;;;8.30;5.97;;;;;;;;;;10036053;29;20113;-54
2021/04/22 08:50:22;;;;;;;7.32;6.05;;;;;;;;;;10036079;29;20087;-58
2021/04/22 08:55:22;;;;;;;5.43;4.93;;;;;;;;;;10035740;29;20067;-53
2021/04/22 09:00:21;;;;;;;6.30;5.32;;;;;;;;;;10035854;29;20090;-55
2021/04/22 09:05:19;;;;;;;11.20;5.78;;;;;;;;;;10035533;29;20086;-55
2021/04/22 09:10:17;;;;;;;9.65;6.13;;;;;;;;;;10034652;29;20090;-53
2021/04/22 09:15:19;;;;;;;6.88;6.13;;;;;;;;;;10035328;29;20095;-57
2021/04/22 09:20:25;;;;;;;8.88;6.25;;;;;;;;;;10035877;29;20529;-55
2021/04/22 09:25:25;;;;;;;7.47;6.70;;;;;;;;;;10034858;29;20075;-58
2021/04/22 09:30:34;;;;;;;9.98;6.47;;;;;;;;;;10034868;29;20540;-56
2021/04/22 09:35:31;;;;;;;8.57;5.82;;;;;;;;;;10035510;29;20280;-56
2021/04/22 09:40:30;;;;;;;8.70;6.03;;;;;;;;;;10036979;29;20051;-56
2021/04/22 09:45:29;;;;;;;8.57;6.13;;;;;;;;;;10042363;29;20075;-56
2021/04/22 09:50:42;;;;;;;;;;;;;;;;;;10043003;29;20090;-58
2021/04/22 09:55:40;;;;;;;9.65;7.18;;;;;;;;;;10042225;29;19922;-56
2021/04/22 10:00:38;;;;;;;7.70;5.70;;;;;;;;;;10041621;29;20087;-55
2021/04/22 10:05:37;;;;;;;5.55;5.03;;;;;;;;;;10041869;29;20122;-54
2021/04/22 10:10:35;;;;;;;7.43;5.43;;;;;;;;;;10041512;29;20087;-56
2021/04/22 10:15:33;;;;;;;8.10;6.40;;;;;;;;;;10041284;29;20086;-55
2021/04/22 10:20:32;;;;;;;5.13;4.40;;;;;;;;;;10040659;29;20154;-56
2021/04/22 10:25:30;;;;;;;19.63;15.85;;;;;;;;;;10040731;29;20059;-57
2021/04/22 10:30:28;;;;;;;6.97;5.13;;;;;;;;;;10039659;29;20095;-56
2021/04/22 10:35:28;;;;;;;6.60;5.55;;;;;;;;;;10040528;29;20082;-56
2021/04/22 10:40:27;;;;;;;17.85;13.70;;;;;;;;;;10040879;29;20047;-55
2021/04/22 10:45:25;;;;;;;6.50;5.05;;;;;;;;;;10040171;29;20506;-55
2021/04/22 10:50:25;;;;;;;6.55;5.38;;;;;;;;;;10040048;29;20377;-57
2021/04/22 10:55:24;;;;;;;8.90;5.32;;;;;;;;;;10039868;29;20039;-57
2021/04/22 11:00:23;;;;;;;7.38;5.35;;;;;;;;;;10039829;29;20075;-55
2021/04/22 11:05:22;;;;;;;6.07;5.47;;;;;;;;;;10040080;29;20087;-56
2021/04/22 11:10:19;;;;;;;6.72;4.13;;;;;;;;;;10039581;29;20075;-55
2021/04/22 11:15:19;;;;;;;8.48;4.80;;;;;;;;;;10038672;29;20067;-55
2021/04/22 11:20:18;;;;;;;9.18;4.57;;;;;;;;;;10039124;29;20062;-57
2021/04/22 11:25:17;;;;;;;5.18;4.00;;;;;;;;;;10038194;29;20079;-55
2021/04/22 11:30:25;;;;;;;4.20;3.80;;;;;;;;;;10037903;29;20560;-55
2021/04/22 11:35:23;;;;;;;7.38;5.18;;;;;;;;;;10038895;29;20090;-57
2021/04/22 11:40:23;;;;;;;7.00;6.15;;;;;;;;;;10037536;29;20044;-55
2021/04/22 11:45:23;;;;;;;11.52;5.40;;;;;;;;;;10037990;29;20086;-54
2021/04/22 11:50:24;;;;;;;8.70;6.05;;;;;;;;;;10037936;29;20079;-56
2021/04/22 11:55:23;;;;;;;7.93;7.13;;;;;;;;;;10037022;29;20082;-55
2021/04/22 12:00:21;;;;;;;7.10;4.95;;;;;;;;;;10037469;29;20079;-56
2021/04/22 12:05:19;;;;;;;11.00;9.13;;;;;;;;;;10036676;29;20056;-55
2021/04/22 12:10:18;;;;;;;5.70;4.75;;;;;;;;;;10037622;29;20082;-57
2021/04/22 12:15:18;;;;;;;12.32;5.05;;;;;;;;;;10036978;29;20081;-57
2021/04/22 12:20:18;;;;;;;4.15;3.75;;;;;;;;;;10036522;29;20075;-57
2021/04/22 12:25:18;;;;;;;5.85;5.28;;;;;;;;;;10036529;29;20520;-57
2021/04/22 12:30:18;;;;;;;6.03;4.65;;;;;;;;;;10035595;29;20086;-57
2021/04/22 12:35:16;;;;;;;5.22;4.25;;;;;;;;;;10036658;29;20501;-57
2021/04/22 12:40:14;;;;;;;8.82;6.45;;;;;;;;;;10036473;29;20551;-57
2021/04/22 12:45:13;;;;;;;7.18;4.80;;;;;;;;;;10035480;29;20087;-55
2021/04/22 12:50:13;;;;;;;4.32;3.92;;;;;;;;;;10036244;29;20098;-56
2021/04/22 12:55:13;;;;;;;8.35;7.55;;;;;;;;;;10035862;29;20079;-58
2021/04/22 13:00:12;;;;;;;6.63;5.28;;;;;;;;;;10035748;29;20068;-57
2021/04/22 13:05:10;;;;;;;6.65;5.80;;;;;;;;;;10036038;29;20075;-57
2021/04/22 13:10:11;;;;;;;4.85;4.35;;;;;;;;;;10035377;29;20083;-56
2021/04/22 13:15:09;;;;;;;8.48;5.70;;;;;;;;;;10036269;29;20062;-56
2021/04/22 13:20:17;;;;;;;6.28;5.00;;;;;;;;;;10043073;29;20059;-57
2021/04/22 13:25:16;;;;;;;9.05;6.05;;;;;;;;;;10042509;29;20086;-59
2021/04/22 13:30:14;;;;;;;3.97;3.53;;;;;;;;;;10042347;29;20636;-56
2021/04/22 13:35:12;;;;;;;9.00;6.65;;;;;;;;;;10042761;29;20051;-56
2021/04/22 13:40:11;;;;;;;4.68;3.72;;;;;;;;;;10042436;29;20105;-57
2021/04/22 13:45:11;;;;;;;6.05;3.78;;;;;;;;;;10042038;29;20075;-54
2021/04/22 13:50:09;;;;;;;6.32;4.15;;;;;;;;;;10042578;29;20083;-56
2021/04/22 13:55:07;;;;;;;5.97;4.35;;;;;;;;;;10041935;29;20079;-56
2021/04/22 14:00:07;;;;;;;7.38;4.50;;;;;;;;;;10042110;29;20208;-58
2021/04/22 14:05:13;;;;;;;6.45;5.22;;;;;;;;;;10041756;29;20438;-57
2021/04/22 14:10:24;;;;;;;5.32;4.18;;;;;;;;;;10041396;29;20551;-56
2021/04/22 14:15:22;;;;;;;6.25;3.72;;;;;;;;;;10041771;29;20105;-56
2021/04/22 14:20:20;;;;;;;7.07;5.32;;;;;;;;;;10041306;29;20050;-56
2021/04/22 14:25:18;;;;;;;5.32;4.00;;;;;;;;;;10040309;29;20052;-56
2021/04/22 14:30:16;;;;;;;6.75;6.03;;;;;;;;;;10039608;29;20095;-55
2021/04/22 14:35:14;;;;;;;6.32;4.25;;;;;;;;;;10038865;29;20062;-57
2021/04/22 14:40:12;;;;;;;5.18;3.42;;;;;;;;;;10040302;29;20506;-58
2021/04/22 14:45:10;;;;;;;5.60;5.03;;;;;;;;;;10040149;29;20071;-56
2021/04/22 14:50:09;;;;;;;4.85;3.63;;;;;;;;;;10040232;29;20082;-55
2021/04/22 14:55:07;;;;;;;4.32;3.08;;;;;;;;;;10040044;29;20470;-56
2021/04/22 15:00:07;;;;;;;7.10;4.90;;;;;;;;;;10034861;29;20102;-56
2021/04/22 15:05:04;;;;;;;9.23;5.55;;;;;;;;;;10018914;29;20090;-55
2021/04/22 15:10:02;;;;;;;4.45;3.40;;;;;;;;;;10020655;29;20479;-54
2021/04/22 15:14:59;;;;;;;14.88;11.48;;;;;;;;;;10023241;29;20067;-57
2021/04/22 15:19:57;;;;;;;23.20;14.60;;;;;;;;;;10013930;29;20079;-56
2021/04/22 15:24:55;;;;;;;22.58;14.70;;;;;;;;;;10039825;29;20567;-51
2021/04/22 15:29:52;;;;;;;4.38;3.97;;;;;;;;;;10039249;29;20048;-56
2021/04/22 15:34:49;;;;;;;6.50;4.63;;;;;;;;;;10039854;29;20094;-57
2021/04/22 15:39:48;;;;;;;6.55;5.13;;;;;;;;;;10038916;29;20044;-56
2021/04/22 15:44:45;;;;;;;3.92;3.53;;;;;;;;;;10038797;29;20513;-55
2021/04/22 15:49:43;;;;;;;11.75;5.60;;;;;;;;;;10039130;29;20079;-53
2021/04/22 15:54:40;;;;;;;15.73;10.75;;;;;;;;;;10039204;29;20082;-56
2021/04/22 15:59:39;;;;;;;6.18;5.28;;;;;;;;;;10038953;29;20086;-54
2021/04/22 16:04:36;;;;;;;16.45;13.23;;;;;;;;;;10038597;29;20087;-55
2021/04/22 16:09:35;;;;;;;10.60;8.02;;;;;;;;;;10038783;29;20067;-56
2021/04/22 16:14:32;;;;;;;8.55;7.32;;;;;;;;;;10038313;29;20501;-56
2021/04/22 16:19:31;;;;;;;19.98;13.07;;;;;;;;;;10038605;29;20445;-52
2021/04/22 16:24:29;;;;;;;9.85;8.05;;;;;;;;;;10038336;29;20071;-55
2021/04/22 16:29:26;;;;;;;13.35;11.95;;;;;;;;;;10037677;29;20056;-56
2021/04/22 16:34:25;;;;;;;8.82;6.00;;;;;;;;;;10032425;29;20090;-57
2021/04/22 16:39:23;;;;;;;10.70;6.95;;;;;;;;;;10032988;29;20071;-55
2021/04/22 16:44:21;;;;;;;14.68;11.70;;;;;;;;;;10032475;29;20466;-54
2021/04/22 16:49:18;;;;;;;22.50;13.88;;;;;;;;;;10035726;29;20075;-55
2021/04/22 16:54:15;;;;;;;21.25;14.98;;;;;;;;;;10036175;29;20090;-55
2021/04/22 16:59:18;;;;;;;22.67;16.27;;;;;;;;;;10036088;29;20048;-57
2021/04/22 17:04:17;;;;;;;43.95;29.10;;;;;;;;;;10035528;29;20054;-58
2021/04/22 17:09:16;;;;;;;33.28;22.08;;;;;;;;;;10031265;29;20082;-55
2021/04/22 17:14:14;;;;;;;37.53;21.83;;;;;;;;;;10040165;29;20078;-58
2021/04/22 17:19:13;;;;;;;35.10;25.65;;;;;;;;;;10074027;29;20070;-58
2021/04/22 17:24:13;;;;;;;38.08;25.52;;;;;;;;;;10071796;29;20758;-58
2021/04/22 17:29:10;;;;;;;28.08;18.50;;;;;;;;;;10068164;29;20532;-56
2021/04/22 17:34:09;;;;;;;24.55;15.63;;;;;;;;;;10069156;29;20079;-52
2021/04/22 17:39:07;;;;;;;21.45;14.20;;;;;;;;;;10055089;28;20076;-54
2021/04/22 17:44:06;;;;;;;18.48;14.23;;;;;;;;;;10022393;29;20518;-56
2021/04/22 17:49:03;;;;;;;20.05;15.63;;;;;;;;;;9998078;29;20044;-58
2021/04/22 17:54:02;;;;;;;22.50;17.27;;;;;;;;;;9997791;29;20076;-58
2021/04/22 17:59:00;;;;;;;28.15;19.60;;;;;;;;;;9997678;29;20541;-57
2021/04/22 18:03:58;;;;;;;34.30;24.98;;;;;;;;;;10003755;29;20044;-56
2021/04/22 18:08:59;;;;;;;24.02;17.55;;;;;;;;;;10002935;29;20048;-58
2021/04/22 18:13:58;;;;;;;20.13;13.35;;;;;;;;;;10002988;29;20079;-57
2021/04/22 18:18:56;;;;;;;16.80;14.75;;;;;;;;;;10003535;29;20512;-57
2021/04/22 18:23:53;;;;;;;39.85;30.33;;;;;;;;;;10003872;29;20047;-58
2021/04/22 18:28:51;;;;;;;16.20;11.93;;;;;;;;;;10000902;29;20481;-56
2021/04/22 18:33:51;;;;;;;9.68;6.97;;;;;;;;;;10003080;29;20469;-56
2021/04/22 18:38:49;;;;;;;9.40;7.97;;;;;;;;;;10002860;29;20087;-58
2021/04/22 18:43:47;;;;;;;6.95;6.25;;;;;;;;;;10002473;29;20056;-56
2021/04/22 18:48:45;;;;;;;6.43;5.75;;;;;;;;;;10002847;29;20071;-58
2021/04/22 18:53:44;;;;;;;5.03;4.53;;;;;;;;;;10002670;29;20084;-58
2021/04/22 18:58:41;;;;;;;10.55;5.07;;;;;;;;;;10002860;29;20073;-56
2021/04/22 19:03:39;;;;;;;7.50;5.85;;;;;;;;;;10001756;29;20052;-57
2021/04/22 19:08:37;;;;;;;6.60;4.32;;;;;;;;;;10001244;29;20080;-55
2021/04/22 19:13:35;;;;;;;9.10;6.50;;;;;;;;;;10000126;29;20083;-53
2021/04/22 19:18:33;;;;;;;15.90;6.95;;;;;;;;;;10001565;29;20514;-55
2021/04/22 19:23:31;;;;;;;9.10;7.45;;;;;;;;;;10000980;29;20048;-59
2021/04/22 19:28:29;;;;;;;10.50;5.00;;;;;;;;;;10000990;29;20090;-56
2021/04/22 19:33:28;;;;;;;8.00;4.95;;;;;;;;;;10001080;29;20091;-58
2021/04/22 19:38:26;;;;;;;5.88;3.88;;;;;;;;;;10000458;29;20494;-57
2021/04/22 19:43:25;;;;;;;4.35;3.22;;;;;;;;;;10000233;29;20055;-59
2021/04/22 19:48:24;;;;;;;7.38;3.78;;;;;;;;;;10000874;29;20056;-58
2021/04/22 19:53:23;;;;;;;6.93;4.15;;;;;;;;;;10000007;29;20098;-59
2021/04/22 19:58:20;;;;;;;8.00;6.35;;;;;;;;;;10000289;29;20040;-57
2021/04/22 20:03:19;;;;;;;9.35;7.00;;;;;;;;;;9999910;29;20079;-58
2021/04/22 20:08:17;;;;;;;10.50;8.60;;;;;;;;;;9999624;29;20051;-57
2021/04/22 20:13:18;;;;;;;5.82;4.93;;;;;;;;;;9999576;29;20079;-57
2021/04/22 20:18:19;;;;;;;6.93;4.57;;;;;;;;;;9999446;29;20091;-57
2021/04/22 20:23:17;;;;;;;6.00;4.20;;;;;;;;;;9998958;29;20056;-55
2021/04/22 20:28:15;;;;;;;5.82;4.53;;;;;;;;;;9999015;29;20084;-54
2021/04/22 20:33:14;;;;;;;7.40;4.32;;;;;;;;;;9995928;29;20087;-57
2021/04/22 20:38:13;;;;;;;11.32;5.18;;;;;;;;;;9993926;29;20075;-54
2021/04/22 20:43:11;;;;;;;7.32;3.97;;;;;;;;;;9994872;29;20076;-58
2021/04/22 20:48:09;;;;;;;3.97;2.88;;;;;;;;;;9997198;29;20090;-56
2021/04/22 20:53:07;;;;;;;4.13;2.92;;;;;;;;;;9998301;29;20097;-57
2021/04/22 20:58:05;;;;;;;4.90;3.42;;;;;;;;;;9998114;29;20064;-57
2021/04/22 21:03:03;;;;;;;3.90;3.35;;;;;;;;;;9998703;29;20082;-57
2021/04/22 21:08:02;;;;;;;7.18;3.45;;;;;;;;;;9997228;29;20083;-58
2021/04/22 21:13:00;;;;;;;9.65;3.92;;;;;;;;;;9998291;29;20086;-53
2021/04/22 21:17:58;;;;;;;4.40;3.50;;;;;;;;;;9997978;29;20433;-58
2021/04/22 21:22:57;;;;;;;6.38;3.10;;;;;;;;;;9997667;29;20056;-58
2021/04/22 21:27:55;;;;;;;5.18;3.55;;;;;;;;;;9997100;29;20079;-58
2021/04/22 21:32:54;;;;;;;5.40;3.20;;;;;;;;;;9996496;29;20091;-56
2021/04/22 21:37:52;;;;;;;3.88;3.10;;;;;;;;;;10001612;29;20506;-57
2021/04/22 21:42:49;;;;;;;4.03;3.22;;;;;;;;;;10004483;29;20086;-58
2021/04/22 21:47:47;;;;;;;3.88;3.20;;;;;;;;;;10004839;29;20076;-57
2021/04/22 21:52:46;;;;;;;4.38;3.58;;;;;;;;;;10004788;29;20086;-59
2021/04/22 21:57:43;;;;;;;4.55;3.20;;;;;;;;;;10004583;29;20094;-59
2021/04/22 22:02:41;;;;;;;3.35;2.85;;;;;;;;;;10003592;29;20484;-58
2021/04/22 22:07:38;;;;;;;4.05;3.33;;;;;;;;;;10004177;29;20536;-58
2021/04/22 22:12:36;;;;;;;5.18;3.28;;;;;;;;;;10004155;29;20095;-57
2021/04/22 22:17:35;;;;;;;4.45;3.25;;;;;;;;;;10003991;29;20075;-56
2021/04/22 22:22:32;;;;;;;8.77;6.60;;;;;;;;;;10003746;29;20060;-58
2021/04/22 22:27:29;;;;;;;11.25;6.70;;;;;;;;;;10003441;29;20051;-58
2021/04/22 22:32:27;;;;;;;13.57;8.48;;;;;;;;;;10003602;29;20106;-57
2021/04/22 22:37:25;;;;;;;22.98;12.30;;;;;;;;;;10003178;29;20106;-58
2021/04/22 22:42:22;;;;;;;15.55;11.90;;;;;;;;;;10002695;29;20085;-57
2021/04/22 22:47:19;;;;;;;19.48;13.00;;;;;;;;;;10001394;29;20047;-58
2021/04/22 22:52:18;;;;;;;16.23;13.20;;;;;;;;;;10002903;29;20088;-57
2021/04/22 22:57:15;;;;;;;14.77;11.52;;;;;;;;;;10002623;29;20555;-57
2021/04/22 23:02:12;;;;;;;13.60;10.90;;;;;;;;;;10001740;29;20072;-56
2021/04/22 23:07:10;;;;;;;11.73;7.55;;;;;;;;;;10001913;29;20342;-58
2021/04/22 23:12:09;;;;;;;13.38;7.82;;;;;;;;;;10001778;29;20083;-59
2021/04/22 23:17:06;;;;;;;7.55;6.45;;;;;;;;;;10001848;29;20055;-59
2021/04/22 23:22:03;;;;;;;10.18;6.53;;;;;;;;;;10001482;29;20044;-56
2021/04/22 23:27:01;;;;;;;9.77;6.68;;;;;;;;;;9999590;29;20056;-57
2021/04/22 23:31:59;;;;;;;8.23;6.70;;;;;;;;;;10000496;29;20091;-57
2021/04/22 23:36:57;;;;;;;10.60;6.32;;;;;;;;;;10000923;29;20103;-58
2021/04/22 23:41:54;;;;;;;11.43;5.80;;;;;;;;;;10001357;29;20040;-58
2021/04/22 23:46:51;;;;;;;9.82;5.40;;;;;;;;;;10000112;29;20391;-59
2021/04/22 23:51:50;;;;;;;7.95;6.03;;;;;;;;;;9997672;29;20327;-56
2021/04/22 23:56:47;;;;;;;6.40;4.85;;;;;;;;;;9998141;29;20092;-58
